Time;durP1;ratioP1;P1;durP2;ratioP2;P2;SDS_P1;SDS_P2;PMS_P1;PMS_P2;Temp;Humidity;BMP_temperature;BMP_pressure;BME280_temperature;BME280_humidity;BME280_pressure;Samples;Min_cycle;Max_cycle;Signal;HPM_P1;HPM_P2
2022/03/28 00:00:33;;;;;;;310.33;283.65;;;;;;;18.24;27.58;94549.19;5149787;27;22789;-69
2022/03/28 00:03:07;;;;;;;308.77;282.08;;;;;;;18.23;27.56;94548.44;5161799;27;20038;-69
2022/03/28 00:05:32;;;;;;;307.20;280.45;;;;;;;18.25;27.65;94545.28;5138436;27;20061;-69
2022/03/28 00:07:58;;;;;;;302.27;276.02;;;;;;;18.24;27.61;94543.78;5153706;27;20946;-69
2022/03/28 00:10:24;;;;;;;303.58;276.48;;;;;;;18.23;27.58;94545.75;5150142;27;20054;-69
2022/03/28 00:12:50;;;;;;;304.63;278.17;;;;;;;18.22;27.50;94543.47;5148352;27;20038;-69
2022/03/28 00:15:16;;;;;;;304.33;278.10;;;;;;;18.22;27.63;94541.53;5157920;27;20045;-69
2022/03/28 00:17:41;;;;;;;305.83;279.38;;;;;;;18.22;27.49;94543.47;5148673;27;20038;-69
2022/03/28 00:20:11;;;;;;;309.85;282.90;;;;;;;18.23;27.68;94531.44;5154411;27;20030;-70
2022/03/28 00:22:38;;;;;;;295.45;269.38;;;;;;;18.23;27.28;94534.91;5158429;27;20041;-69
2022/03/28 00:25:05;;;;;;;310.35;282.90;;;;;;;18.23;27.43;94526.78;5151870;27;20042;-69
2022/03/28 00:27:31;;;;;;;297.83;271.58;;;;;;;18.24;27.72;94532.97;5155786;27;20046;-69
2022/03/28 00:29:57;;;;;;;301.33;275.35;;;;;;;18.24;27.47;94532.97;5132579;27;20034;-69
2022/03/28 00:32:22;;;;;;;315.50;288.42;;;;;;;18.22;27.75;94527.22;5160114;27;20050;-69
2022/03/28 00:34:48;;;;;;;308.20;281.13;;;;;;;18.23;27.66;94529.50;5152804;27;20049;-69
2022/03/28 00:37:13;;;;;;;314.02;287.00;;;;;;;18.26;27.53;94527.84;5156379;27;20042;-69
2022/03/28 00:39:39;;;;;;;298.83;272.70;;;;;;;18.25;27.58;94524.41;5132361;27;20042;-69
2022/03/28 00:42:05;;;;;;;304.67;277.67;;;;;;;18.28;27.50;94528.16;5155962;27;20176;-69
2022/03/28 00:44:31;;;;;;;306.63;279.20;;;;;;;18.26;27.43;94517.78;5155369;27;20038;-69
2022/03/28 00:46:58;;;;;;;296.77;270.60;;;;;;;18.28;27.53;94522.75;5151177;27;20325;-69
2022/03/28 00:49:23;;;;;;;307.33;280.60;;;;;;;18.25;27.55;94516.28;5131786;27;20047;-69
2022/03/28 00:51:50;;;;;;;321.95;293.48;;;;;;;18.27;27.33;94513.13;5152755;27;20527;-69
2022/03/28 00:54:15;;;;;;;311.13;284.10;;;;;;;18.27;27.52;94508.47;5148035;27;20171;-69
2022/03/28 00:56:42;;;;;;;316.67;289.83;;;;;;;18.29;27.59;94505.31;5159677;27;20117;-69
2022/03/28 00:59:08;;;;;;;300.38;274.13;;;;;;;18.31;27.62;94503.66;5152260;27;20042;-69
2022/03/28 01:01:34;;;;;;;316.83;289.70;;;;;;;18.30;27.54;94504.88;5150319;27;20126;-70
2022/03/28 01:03:59;;;;;;;314.10;286.80;;;;;;;18.27;27.57;94503.03;5147602;27;20597;-69
2022/03/28 01:06:25;;;;;;;314.13;287.08;;;;;;;18.27;27.63;94502.28;5160578;27;20049;-69
2022/03/28 01:08:52;;;;;;;321.23;293.88;;;;;;;18.27;27.74;94505.00;5153512;27;20049;-69
2022/03/28 01:11:18;;;;;;;315.63;288.75;;;;;;;18.26;27.62;94495.38;5153314;27;20065;-69
2022/03/28 01:13:45;;;;;;;299.98;273.42;;;;;;;18.25;27.62;94499.28;5151078;27;20098;-69
2022/03/28 01:16:10;;;;;;;311.75;284.92;;;;;;;18.24;27.69;94506.63;5159886;27;20038;-69
2022/03/28 01:18:36;;;;;;;316.38;289.00;;;;;;;18.25;27.66;94500.03;5155476;27;20034;-69
2022/03/28 01:21:04;;;;;;;291.88;266.20;;;;;;;18.25;27.66;94493.84;5151866;27;20046;-69
2022/03/28 01:23:30;;;;;;;304.92;278.35;;;;;;;18.26;27.67;94500.78;5155698;27;20423;-69
2022/03/28 01:25:56;;;;;;;317.80;289.48;;;;;;;18.24;27.71;94489.63;5153266;27;20405;-69
2022/03/28 01:28:24;;;;;;;300.20;273.65;;;;;;;18.27;27.75;94491.47;5138790;27;20852;-69
2022/03/28 01:30:51;;;;;;;313.25;286.40;;;;;;;18.28;27.74;94487.56;5160349;27;20031;-69
2022/03/28 01:33:17;;;;;;;315.23;288.10;;;;;;;18.26;27.57;94488.00;5159814;27;20076;-69
2022/03/28 01:35:44;;;;;;;313.00;285.92;;;;;;;18.26;27.73;94488.00;5151877;27;20482;-69
2022/03/28 01:38:12;;;;;;;303.63;277.08;;;;;;;18.28;27.59;94482.13;5155753;27;20128;-69
2022/03/28 01:40:44;;;;;;;304.33;277.70;;;;;;;18.26;27.77;94482.59;5154187;27;20415;-69
2022/03/28 01:43:10;;;;;;;309.83;282.90;;;;;;;18.26;27.84;94479.13;5157442;27;20034;-69
2022/03/28 01:45:36;;;;;;;316.50;289.05;;;;;;;18.25;27.66;94483.78;5160946;27;20107;-70
2022/03/28 01:48:02;;;;;;;308.20;281.38;;;;;;;18.25;27.73;94478.38;5151003;27;20054;-70
2022/03/28 01:50:27;;;;;;;312.70;285.90;;;;;;;18.24;27.74;94473.41;5159709;27;20069;-69
2022/03/28 01:52:53;;;;;;;301.90;275.55;;;;;;;18.22;27.72;94471.13;5157896;27;20865;-69
2022/03/28 01:55:19;;;;;;;316.38;289.13;;;;;;;18.24;27.86;94463.31;5156830;27;20075;-70
2022/03/28 01:57:45;;;;;;;308.50;282.10;;;;;;;18.22;27.81;94463.00;5158065;27;20155;-69
2022/03/28 02:00:15;;;;;;;309.23;282.35;;;;;;;18.24;27.68;94468.75;5136298;27;20061;-69
2022/03/28 02:02:41;;;;;;;322.17;294.60;;;;;;;18.23;27.69;94467.22;5157425;27;20549;-69
2022/03/28 02:05:11;;;;;;;312.92;285.88;;;;;;;18.27;27.78;94465.13;5154354;27;20125;-69
2022/03/28 02:07:43;;;;;;;317.05;289.70;;;;;;;18.25;28.05;94470.25;5137828;27;20042;-69
2022/03/28 02:10:10;;;;;;;310.55;283.55;;;;;;;18.27;27.67;94461.69;5140284;27;20109;-69
2022/03/28 02:12:36;;;;;;;310.45;283.55;;;;;;;18.29;27.73;94462.00;5157147;27;20050;-69
2022/03/28 02:15:05;;;;;;;309.55;282.55;;;;;;;18.28;27.95;94460.47;5155109;27;20462;-69
2022/03/28 02:17:31;;;;;;;303.63;276.80;;;;;;;18.27;27.87;94456.25;5162088;27;20041;-69
2022/03/28 02:19:57;;;;;;;298.25;271.95;;;;;;;18.27;27.90;94456.25;5156361;27;20070;-70
2022/03/28 02:22:23;;;;;;;304.70;277.60;;;;;;;18.26;27.98;94455.50;5157676;27;20051;-69
2022/03/28 02:24:48;;;;;;;306.95;280.35;;;;;;;18.26;27.92;94452.81;5160275;27;20624;-69
2022/03/28 02:27:14;;;;;;;292.70;266.42;;;;;;;18.27;28.09;94451.59;5160761;27;20035;-70
2022/03/28 02:29:40;;;;;;;302.13;275.55;;;;;;;18.26;28.11;94450.09;5164131;27;20049;-70
2022/03/28 02:32:06;;;;;;;306.13;279.55;;;;;;;18.27;27.85;94458.97;5155047;27;20108;-70
2022/03/28 02:34:32;;;;;;;300.52;273.88;;;;;;;18.30;27.96;94449.97;5156414;27;20121;-70
2022/03/28 02:36:57;;;;;;;321.63;294.58;;;;;;;18.29;27.97;94449.22;5169293;27;20052;-69
2022/03/28 02:39:23;;;;;;;304.60;277.80;;;;;;;18.31;28.01;94446.06;5154009;27;20482;-70
2022/03/28 02:41:49;;;;;;;313.45;286.42;;;;;;;18.28;28.04;94441.53;5159942;27;20042;-70
2022/03/28 02:44:14;;;;;;;296.05;269.60;;;;;;;18.27;28.02;94442.72;5162121;27;20411;-69
2022/03/28 02:46:40;;;;;;;303.77;277.00;;;;;;;18.25;28.03;94445.13;5154044;27;20087;-70
2022/03/28 02:49:05;;;;;;;298.00;271.75;;;;;;;18.24;27.99;94440.91;5151173;27;20053;-69
2022/03/28 02:51:31;;;;;;;295.38;269.15;;;;;;;18.22;28.01;94432.47;5152406;27;20126;-69
2022/03/28 02:53:57;;;;;;;310.75;283.23;;;;;;;18.22;27.97;94438.66;5155759;27;20074;-70
2022/03/28 02:56:22;;;;;;;297.90;271.65;;;;;;;18.21;27.99;94429.00;5158129;27;20046;-69
2022/03/28 02:58:48;;;;;;;300.23;273.60;;;;;;;18.20;27.99;94438.34;5163986;27;20455;-70
2022/03/28 03:01:14;;;;;;;301.60;274.67;;;;;;;18.19;28.01;94431.44;5135592;27;20039;-68
2022/03/28 03:03:40;;;;;;;305.95;279.30;;;;;;;18.20;28.12;94429.50;5161915;27;20049;-67
2022/03/28 03:06:05;;;;;;;287.50;261.58;;;;;;;18.19;28.06;94430.69;5160839;27;20039;-68
2022/03/28 03:08:31;;;;;;;294.02;267.75;;;;;;;18.20;27.83;94432.91;5155363;27;20047;-68
2022/03/28 03:10:56;;;;;;;307.38;280.58;;;;;;;18.18;27.82;94429.94;5157022;27;20974;-69
2022/03/28 03:13:23;;;;;;;305.40;278.73;;;;;;;18.18;27.92;94431.88;5160811;27;20058;-69
2022/03/28 03:15:48;;;;;;;298.75;272.52;;;;;;;18.17;27.97;94438.50;5155014;27;20624;-68
2022/03/28 03:18:14;;;;;;;295.02;269.20;;;;;;;18.17;27.82;94430.38;5154303;27;20042;-68
2022/03/28 03:20:40;;;;;;;301.63;275.17;;;;;;;18.15;27.89;94425.41;5159554;27;20034;-68
2022/03/28 03:23:05;;;;;;;290.00;264.35;;;;;;;18.15;27.99;94436.22;5158983;27;20030;-69
2022/03/28 03:25:30;;;;;;;296.38;270.42;;;;;;;18.15;27.84;94428.13;5157533;27;20215;-69
2022/03/28 03:27:57;;;;;;;288.95;262.88;;;;;;;18.14;28.04;94432.00;5150111;27;20043;-69
2022/03/28 03:30:23;;;;;;;302.95;276.17;;;;;;;18.13;27.92;94427.81;5159092;27;20087;-69
2022/03/28 03:32:48;;;;;;;306.95;279.42;;;;;;;18.14;27.96;94432.00;5154926;27;20034;-68
2022/03/28 03:35:14;;;;;;;294.05;267.77;;;;;;;18.14;27.85;94433.97;5152458;27;20038;-69
2022/03/28 03:37:40;;;;;;;309.60;281.80;;;;;;;18.13;27.84;94435.16;5147913;27;20038;-68
2022/03/28 03:40:07;;;;;;;301.08;274.45;;;;;;;18.12;27.94;94439.81;5159162;27;20072;-69
2022/03/28 03:42:33;;;;;;;296.15;269.60;;;;;;;18.12;27.82;94436.38;5160986;27;20054;-69
2022/03/28 03:45:00;;;;;;;302.98;276.58;;;;;;;18.12;28.13;94434.41;5154953;27;20117;-69
2022/03/28 03:47:26;;;;;;;313.77;286.17;;;;;;;18.12;27.88;94437.13;5155265;27;20118;-69
2022/03/28 03:49:52;;;;;;;292.65;266.50;;;;;;;18.09;27.83;94433.34;5156929;27;20395;-68
2022/03/28 03:52:18;;;;;;;302.65;276.20;;;;;;;18.07;27.92;94435.75;5163231;27;20039;-68
2022/03/28 03:54:43;;;;;;;299.77;273.70;;;;;;;18.07;28.09;94437.69;5158535;27;20114;-69
2022/03/28 03:57:09;;;;;;;309.63;282.35;;;;;;;18.06;27.91;94430.78;5150300;27;20066;-68
2022/03/28 03:59:35;;;;;;;296.70;269.98;;;;;;;18.06;28.11;94431.53;5137958;27;20470;-68
2022/03/28 04:02:00;;;;;;;293.15;266.63;;;;;;;18.05;27.97;94438.13;5153924;27;23145;-68
2022/03/28 04:04:26;;;;;;;320.20;292.30;;;;;;;18.06;28.16;94441.59;5154611;27;20116;-68
2022/03/28 04:06:52;;;;;;;298.13;271.90;;;;;;;18.06;27.61;94441.59;5166117;27;20042;-68
2022/03/28 04:09:17;;;;;;;300.23;273.92;;;;;;;18.07;28.07;94440.41;5151697;27;20050;-68
2022/03/28 04:11:43;;;;;;;309.52;282.08;;;;;;;18.08;28.03;94442.66;5139636;27;20047;-68
2022/03/28 04:14:08;;;;;;;320.00;291.35;;;;;;;18.09;28.16;94436.06;5132516;27;20098;-68
2022/03/28 04:16:34;;;;;;;298.90;272.52;;;;;;;18.12;28.08;94441.78;5157000;27;20061;-68
2022/03/28 04:19:00;;;;;;;298.08;271.98;;;;;;;18.11;27.96;94438.31;5153281;27;20037;-68
2022/03/28 04:21:26;;;;;;;297.10;271.08;;;;;;;18.13;28.00;94432.47;5160593;27;20042;-69
2022/03/28 04:23:51;;;;;;;291.95;265.90;;;;;;;18.13;28.05;94438.63;5137148;27;20054;-68
2022/03/28 04:26:18;;;;;;;305.63;278.98;;;;;;;18.15;28.00;94438.19;5153634;27;20102;-68
2022/03/28 04:28:43;;;;;;;306.25;279.38;;;;;;;18.17;28.15;94441.19;5153340;27;20038;-69
2022/03/28 04:31:09;;;;;;;306.13;279.70;;;;;;;18.18;27.90;94440.00;5150970;27;20394;-68
2022/03/28 04:33:35;;;;;;;305.08;278.23;;;;;;;18.20;27.98;94440.31;5149856;27;21442;-68
2022/03/28 04:36:01;;;;;;;306.65;280.10;;;;;;;18.21;28.36;94439.09;5132142;27;20478;-70
2022/03/28 04:38:27;;;;;;;303.58;277.10;;;;;;;18.22;27.97;94435.94;5151766;27;20118;-69
2022/03/28 04:40:53;;;;;;;307.42;280.75;;;;;;;18.24;27.83;94436.25;5148709;27;20058;-70
2022/03/28 04:43:19;;;;;;;302.13;275.98;;;;;;;18.24;27.93;94436.25;5154331;27;20359;-70
2022/03/28 04:45:44;;;;;;;317.67;290.88;;;;;;;18.26;27.87;94435.81;5147884;27;20042;-70
2022/03/28 04:48:10;;;;;;;318.05;290.75;;;;;;;18.28;27.93;94439.56;5155433;27;20097;-69
2022/03/28 04:50:35;;;;;;;306.88;280.42;;;;;;;18.32;28.04;94442.16;5135279;27;20045;-70
2022/03/28 04:53:02;;;;;;;321.20;294.13;;;;;;;18.32;27.98;94429.38;5144893;27;20444;-69
2022/03/28 04:55:27;;;;;;;330.38;302.95;;;;;;;18.34;27.94;94435.09;5148706;27;20073;-69
2022/03/28 04:57:53;;;;;;;314.25;287.50;;;;;;;18.37;27.87;94436.91;5156951;27;20782;-70
2022/03/28 05:00:19;;;;;;;317.83;290.95;;;;;;;18.40;27.94;94438.72;5154604;27;20042;-70
2022/03/28 05:02:44;;;;;;;311.63;285.60;;;;;;;18.43;27.92;94437.84;5147113;27;20057;-70
2022/03/28 05:05:10;;;;;;;310.38;284.08;;;;;;;18.45;28.03;94437.41;5150792;27;20043;-70
2022/03/28 05:07:36;;;;;;;302.67;276.60;;;;;;;18.45;28.05;94429.28;5157655;27;20046;-70
2022/03/28 05:10:05;;;;;;;316.88;290.35;;;;;;;18.46;27.87;94425.34;5134801;27;20042;-70
2022/03/28 05:12:31;;;;;;;323.52;296.45;;;;;;;18.48;27.76;94431.09;5156539;27;20081;-70
2022/03/28 05:14:57;;;;;;;314.05;287.50;;;;;;;18.50;27.95;94431.41;5159886;27;20034;-68
2022/03/28 05:17:28;;;;;;;334.42;307.02;;;;;;;18.52;27.74;94434.41;5158836;27;20407;-68
2022/03/28 05:19:54;;;;;;;313.02;286.67;;;;;;;18.54;28.01;94436.66;5159127;27;20042;-68
2022/03/28 05:22:21;;;;;;;318.38;291.70;;;;;;;18.54;27.93;94432.00;5162870;27;20094;-68
2022/03/28 05:24:50;;;;;;;310.77;284.38;;;;;;;18.58;28.08;94437.28;5144871;27;20041;-68
2022/03/28 05:27:15;;;;;;;325.10;297.15;;;;;;;18.60;27.99;94435.66;5158571;27;20087;-68
2022/03/28 05:29:42;;;;;;;321.02;294.27;;;;;;;18.62;27.73;94429.81;5164439;27;20418;-69
2022/03/28 05:32:08;;;;;;;314.80;288.92;;;;;;;18.62;27.96;94419.72;5137433;27;20046;-69
2022/03/28 05:34:34;;;;;;;309.23;283.23;;;;;;;18.65;27.84;94423.50;5152736;27;20049;-69
2022/03/28 05:37:01;;;;;;;310.08;283.80;;;;;;;18.67;28.03;94421.09;5159409;27;20049;-69
2022/03/28 05:39:27;;;;;;;320.42;294.25;;;;;;;18.69;27.87;94429.53;5165218;27;20037;-69
2022/03/28 05:41:53;;;;;;;314.77;288.38;;;;;;;18.71;27.82;94427.88;5159485;27;20139;-69
2022/03/28 05:44:20;;;;;;;321.27;294.13;;;;;;;18.69;27.87;94424.88;5160136;27;20129;-69
2022/03/28 05:46:48;;;;;;;314.08;287.77;;;;;;;18.70;27.90;94426.38;5150306;27;20042;-69
2022/03/28 05:49:14;;;;;;;318.15;291.90;;;;;;;18.69;27.77;94426.81;5157128;27;20040;-70
2022/03/28 05:51:39;;;;;;;332.38;305.08;;;;;;;18.69;27.66;94422.16;5134553;27;20078;-70
2022/03/28 05:54:05;;;;;;;330.00;301.80;;;;;;;18.70;27.79;94420.19;5153171;27;20541;-68
2022/03/28 05:56:31;;;;;;;315.40;289.20;;;;;;;18.72;27.92;94410.41;5161334;27;20034;-69
2022/03/28 05:58:57;;;;;;;312.27;285.77;;;;;;;18.74;27.86;94420.81;5160048;27;20050;-70
2022/03/28 06:01:23;;;;;;;319.20;292.58;;;;;;;18.76;28.08;94418.41;5154089;27;20079;-69
2022/03/28 06:03:49;;;;;;;328.10;300.45;;;;;;;18.74;27.94;94415.41;5135299;27;20042;-70
2022/03/28 06:06:15;;;;;;;320.85;294.15;;;;;;;18.74;28.01;94423.53;5154761;27;20042;-69
2022/03/28 06:08:41;;;;;;;324.50;297.80;;;;;;;18.75;27.98;94420.38;5159454;27;20034;-69
2022/03/28 06:11:06;;;;;;;321.65;294.95;;;;;;;18.74;27.90;94418.09;5148100;27;20056;-69
2022/03/28 06:13:33;;;;;;;320.80;293.85;;;;;;;18.74;27.75;94416.16;5163299;27;20037;-69
2022/03/28 06:15:59;;;;;;;317.65;289.65;;;;;;;18.71;27.96;94417.03;5139580;27;20043;-70
2022/03/28 06:18:25;;;;;;;311.15;285.23;;;;;;;18.69;27.96;94413.28;5153373;27;20094;-70
2022/03/28 06:20:51;;;;;;;329.15;302.23;;;;;;;18.69;28.25;94424.88;5152502;27;20042;-70
2022/03/28 06:23:17;;;;;;;324.17;297.52;;;;;;;18.70;27.81;94420.19;5152715;27;20442;-69
2022/03/28 06:25:42;;;;;;;307.42;281.98;;;;;;;18.70;27.90;94429.09;5140529;27;20034;-70
2022/03/28 06:28:09;;;;;;;316.52;290.20;;;;;;;18.69;27.78;94419.44;5171412;27;20137;-70
2022/03/28 06:30:35;;;;;;;314.95;288.70;;;;;;;18.70;27.79;94420.19;5162292;27;20030;-67
2022/03/28 06:33:00;;;;;;;310.38;284.52;;;;;;;18.70;27.75;94415.53;5142134;27;20083;-68
2022/03/28 06:35:26;;;;;;;307.90;281.92;;;;;;;18.70;28.00;94418.25;5152153;27;20041;-69
2022/03/28 06:37:53;;;;;;;319.77;293.10;;;;;;;18.69;27.68;94416.72;5153684;27;20114;-68
2022/03/28 06:40:19;;;;;;;307.70;281.77;;;;;;;18.70;27.79;94423.66;5145828;27;20050;-68
2022/03/28 06:42:45;;;;;;;309.45;283.35;;;;;;;18.69;27.87;94421.41;5143051;27;20374;-66
2022/03/28 06:45:11;;;;;;;319.60;292.85;;;;;;;18.68;27.70;94417.94;5156860;27;20042;-70
2022/03/28 06:47:37;;;;;;;315.75;288.90;;;;;;;18.67;27.67;94416.44;5158818;27;20041;-69
2022/03/28 06:50:07;;;;;;;312.23;286.30;;;;;;;18.69;27.62;94418.69;5154927;27;20034;-67
2022/03/28 06:52:34;;;;;;;323.35;296.98;;;;;;;18.69;27.64;94419.44;5137126;27;20051;-68
2022/03/28 06:55:00;;;;;;;316.10;289.67;;;;;;;18.68;27.84;94420.66;5151737;27;20116;-67
2022/03/28 06:57:26;;;;;;;320.33;294.02;;;;;;;18.68;27.89;94415.22;5165230;27;20085;-67
2022/03/28 06:59:53;;;;;;;330.27;302.95;;;;;;;18.69;27.84;94414.03;5135134;27;20046;-65
2022/03/28 07:02:19;;;;;;;320.52;293.95;;;;;;;18.70;27.98;94420.19;5155740;27;20046;-69
2022/03/28 07:04:45;;;;;;;317.05;290.80;;;;;;;18.69;27.98;94415.97;5150552;27;20496;-67
2022/03/28 07:07:11;;;;;;;330.25;302.40;;;;;;;18.70;27.85;94417.50;5134470;27;20043;-69
2022/03/28 07:09:37;;;;;;;316.38;289.77;;;;;;;18.69;27.91;94421.41;5153977;27;20038;-69
2022/03/28 07:12:05;;;;;;;347.83;319.70;;;;;;;18.70;27.91;94417.50;5152498;27;20136;-69
2022/03/28 07:14:34;;;;;;;327.00;299.98;;;;;;;18.70;27.76;94420.94;5159235;27;20367;-70
2022/03/28 07:16:59;;;;;;;314.02;287.80;;;;;;;18.72;27.70;94417.78;5164129;27;20455;-71
2022/03/28 07:19:26;;;;;;;317.90;291.30;;;;;;;18.74;27.83;94426.22;5151694;27;20149;-66
2022/03/28 07:21:51;;;;;;;311.30;285.08;;;;;;;18.74;27.67;94418.09;5157792;27;20518;-65
2022/03/28 07:24:17;;;;;;;324.23;297.17;;;;;;;18.69;27.88;94411.31;5160538;27;20051;-66
2022/03/28 07:26:45;;;;;;;313.98;287.70;;;;;;;18.69;27.90;94413.28;5151472;27;20045;-67
2022/03/28 07:29:11;;;;;;;327.58;300.50;;;;;;;18.68;27.88;94409.81;5155435;27;20054;-66
2022/03/28 07:31:39;;;;;;;314.88;288.60;;;;;;;18.69;27.83;94405.16;5150731;27;20030;-69
2022/03/28 07:36:54;;;;;;;317.23;290.67;;;;;;;18.73;27.81;94403.03;5159558;27;20050;-70
2022/03/28 07:39:20;;;;;;;315.42;288.83;;;;;;;18.73;27.89;94408.47;5147594;27;20065;-68
2022/03/28 07:41:47;;;;;;;310.05;284.05;;;;;;;18.73;27.88;94401.09;5160153;27;20478;-71
2022/03/28 07:44:13;;;;;;;321.23;293.83;;;;;;;18.73;27.95;94406.50;5161407;27;20038;-70
2022/03/28 07:46:39;;;;;;;322.20;295.05;;;;;;;18.70;27.82;94406.66;5160733;27;20125;-69
2022/03/28 07:49:04;;;;;;;314.70;288.00;;;;;;;18.65;28.02;94404.53;5159337;27;20069;-69
2022/03/28 07:51:30;;;;;;;316.48;290.05;;;;;;;18.63;27.98;94399.56;5155286;27;20030;-69
2022/03/28 07:53:56;;;;;;;318.92;291.95;;;;;;;18.66;28.18;94398.66;5155193;27;20045;-69
2022/03/28 07:56:22;;;;;;;325.92;299.10;;;;;;;18.66;27.69;94401.38;5157183;27;20451;-69
2022/03/28 07:58:47;;;;;;;305.50;279.50;;;;;;;18.70;27.90;94387.69;5140524;27;20046;-69
2022/03/28 08:01:13;;;;;;;313.70;287.08;;;;;;;18.71;27.79;94394.63;5129344;27;20050;-69
2022/03/28 08:03:38;;;;;;;320.50;293.58;;;;;;;18.68;27.59;94400.94;5150600;27;20731;-70
2022/03/28 08:06:04;;;;;;;346.70;315.33;;;;;;;18.69;27.83;94391.59;5140604;27;20142;-69
2022/03/28 08:08:32;;;;;;;319.15;291.17;;;;;;;18.68;27.63;94398.22;5134913;27;20041;-69
2022/03/28 08:10:59;;;;;;;330.98;302.33;;;;;;;18.67;27.70;94394.75;5132638;27;20042;-69
2022/03/28 08:13:24;;;;;;;342.10;312.20;;;;;;;18.67;27.72;94394.00;5137341;27;20077;-70
2022/03/28 08:15:50;;;;;;;326.08;297.38;;;;;;;18.66;27.98;94393.25;5134909;27;20429;-70
2022/03/28 08:18:16;;;;;;;327.30;298.17;;;;;;;18.65;27.64;94394.44;5135519;27;20061;-69
2022/03/28 08:20:43;;;;;;;319.08;290.73;;;;;;;18.63;27.72;94393.38;5134476;27;20045;-69
2022/03/28 08:23:08;;;;;;;326.52;297.98;;;;;;;18.62;27.78;94389.19;5115282;27;20080;-69
2022/03/28 08:25:34;;;;;;;334.80;305.65;;;;;;;18.61;27.74;94396.53;5132611;27;20035;-69
2022/03/28 08:28:00;;;;;;;321.95;293.63;;;;;;;18.59;27.76;94390.03;5136027;27;20498;-68
2022/03/28 08:30:26;;;;;;;329.90;300.30;;;;;;;18.60;27.69;94391.56;5133712;27;20054;-69
2022/03/28 08:32:52;;;;;;;323.35;295.02;;;;;;;18.58;27.79;94391.25;5117131;27;20076;-71
2022/03/28 08:35:17;;;;;;;307.30;280.48;;;;;;;18.60;27.90;94396.97;5115897;27;20038;-71
2022/03/28 08:37:43;;;;;;;324.50;296.38;;;;;;;18.59;27.74;94382.66;5137541;27;20066;-70
2022/03/28 08:40:09;;;;;;;327.88;298.85;;;;;;;18.60;27.78;94388.84;5136844;27;20185;-69
2022/03/28 08:42:35;;;;;;;325.92;297.08;;;;;;;18.59;27.80;94381.91;5095366;27;20051;-69
2022/03/28 08:45:01;;;;;;;340.15;310.70;;;;;;;18.55;27.71;94381.31;5135257;27;20106;-69
2022/03/28 08:47:28;;;;;;;327.05;299.30;;;;;;;18.52;27.87;94382.19;5116985;27;21907;-69
2022/03/28 08:49:54;;;;;;;327.50;298.50;;;;;;;18.52;27.69;94385.66;5132839;27;20039;-69
2022/03/28 08:52:21;;;;;;;330.00;300.85;;;;;;;18.51;27.89;94383.41;5114194;27;20109;-69
2022/03/28 08:54:48;;;;;;;326.27;297.10;;;;;;;18.50;27.96;94376.47;5138478;27;20043;-69
2022/03/28 08:57:18;;;;;;;328.48;299.65;;;;;;;18.48;27.97;94374.22;5138842;27;20124;-69
2022/03/28 08:59:43;;;;;;;334.02;304.85;;;;;;;18.50;27.82;94373.75;5126786;27;20037;-70
2022/03/28 09:02:29;;;;;;;326.45;297.50;;;;;;;18.50;27.95;94373.75;5139276;27;20075;-70
2022/03/28 09:04:55;;;;;;;312.52;285.48;;;;;;;18.53;27.69;94373.63;5139098;27;21662;-70
2022/03/28 09:07:28;;;;;;;340.13;310.85;;;;;;;18.53;27.69;94372.88;5139714;27;20058;-70
2022/03/28 09:10:02;;;;;;;315.73;288.38;;;;;;;18.53;28.02;94368.22;5136890;27;20039;-69
2022/03/28 09:12:28;;;;;;;322.67;294.48;;;;;;;18.48;27.66;94365.34;5141003;27;20046;-69
2022/03/28 09:15:04;;;;;;;323.50;294.70;;;;;;;18.48;27.92;94363.38;5116403;27;20060;-70
2022/03/28 09:17:31;;;;;;;333.83;304.35;;;;;;;18.46;27.80;94368.50;5136061;27;20039;-69
2022/03/28 09:20:02;;;;;;;325.70;296.90;;;;;;;18.43;27.88;94356.59;5139787;27;20055;-70
2022/03/28 09:22:34;;;;;;;320.50;292.35;;;;;;;18.43;27.94;94355.84;5138435;27;20842;-69
2022/03/28 09:25:03;;;;;;;334.65;305.40;;;;;;;18.41;27.72;94350.13;5118660;27;21009;-69
2022/03/28 09:27:34;;;;;;;334.13;304.50;;;;;;;18.38;27.71;94351.00;5117160;27;20551;-70
2022/03/28 09:30:03;;;;;;;317.60;289.77;;;;;;;18.35;27.91;94346.50;5117007;27;20065;-70
2022/03/28 09:32:33;;;;;;;327.88;299.60;;;;;;;18.32;27.89;94344.69;5138595;27;21919;-69
2022/03/28 09:35:13;;;;;;;332.10;303.13;;;;;;;18.33;27.74;94343.47;5137913;27;20047;-69
2022/03/28 09:38:04;;;;;;;331.65;302.17;;;;;;;18.34;27.75;94343.03;5126040;27;20042;-69
2022/03/28 09:40:41;;;;;;;328.25;298.90;;;;;;;18.32;27.65;94334.59;5137212;27;20046;-69
2022/03/28 09:43:12;;;;;;;334.77;304.35;;;;;;;18.33;27.78;94338.81;5137462;27;20042;-69
2022/03/28 09:45:39;;;;;;;368.35;336.33;;;;;;;18.31;27.60;94332.34;5130619;27;20043;-69
2022/03/28 09:48:08;;;;;;;323.63;294.88;;;;;;;18.26;27.54;94333.69;5136192;27;20038;-69
2022/03/28 09:50:46;;;;;;;327.70;298.20;;;;;;;18.30;27.61;94330.84;5116038;27;20081;-70
2022/03/28 09:53:25;;;;;;;317.63;290.25;;;;;;;18.37;27.38;94328.59;5134456;27;20135;-70
2022/03/28 09:55:59;;;;;;;309.38;282.20;;;;;;;18.35;27.45;94327.53;5132437;27;22406;-70
2022/03/28 09:58:42;;;;;;;339.15;309.20;;;;;;;18.31;27.59;94327.69;5135925;27;20091;-70
2022/03/28 10:01:24;;;;;;;329.88;299.92;;;;;;;18.29;27.65;94332.78;5134754;27;20477;-70
2022/03/28 10:03:52;;;;;;;319.65;291.20;;;;;;;18.30;27.66;94330.84;5136223;27;20084;-69
2022/03/28 10:06:18;;;;;;;318.60;290.52;;;;;;;18.20;27.69;94318.50;5133741;27;20042;-69
2022/03/28 10:08:45;;;;;;;312.38;285.63;;;;;;;18.23;27.69;94321.03;5144110;27;20042;-69
2022/03/28 10:11:11;;;;;;;312.27;285.42;;;;;;;18.26;27.58;94317.44;5156212;27;20107;-69
2022/03/28 10:13:38;;;;;;;310.23;283.35;;;;;;;18.19;27.66;94304.22;5148328;27;20042;-69
2022/03/28 10:16:04;;;;;;;309.67;283.13;;;;;;;18.21;27.69;94303.72;5149914;27;20054;-68
2022/03/28 10:18:34;;;;;;;321.95;294.75;;;;;;;18.18;27.64;94294.59;5143206;27;20049;-69
2022/03/28 10:21:16;;;;;;;318.85;291.50;;;;;;;18.17;27.84;94292.31;5169386;27;20506;-69
2022/03/28 10:23:48;;;;;;;;;;;;;;;18.16;27.56;94288.09;5162318;27;20194;-69
2022/03/28 10:26:16;;;;;;;301.80;275.52;;;;;;;18.15;27.75;94289.31;5162157;27;19919;-69
2022/03/28 10:28:41;;;;;;;307.35;281.00;;;;;;;18.15;27.65;94281.94;5150808;27;20043;-69
2022/03/28 10:31:16;;;;;;;302.60;276.42;;;;;;;18.19;27.53;94274.44;5161661;27;20030;-69
2022/03/28 10:33:47;;;;;;;310.67;283.85;;;;;;;18.22;27.62;94267.34;5159808;27;20042;-69
2022/03/28 10:36:31;;;;;;;308.02;281.48;;;;;;;18.28;27.58;94263.59;5156085;27;20059;-69
2022/03/28 10:39:30;;;;;;;306.38;279.95;;;;;;;18.37;27.46;94257.44;5165789;27;20061;-69
2022/03/28 10:42:07;;;;;;;296.80;270.77;;;;;;;18.42;27.63;94260.31;5134268;27;20054;-69
2022/03/28 10:44:44;;;;;;;302.05;276.38;;;;;;;18.39;27.54;94253.09;5154769;27;20043;-69
2022/03/28 10:47:09;;;;;;;310.75;284.33;;;;;;;18.40;27.63;94249.19;5149946;27;20034;-69
2022/03/28 10:49:35;;;;;;;297.55;271.58;;;;;;;18.41;27.38;94241.81;5149744;27;20045;-69
2022/03/28 10:52:02;;;;;;;304.20;277.75;;;;;;;18.45;27.57;94239.69;5158342;27;20103;-69
2022/03/28 10:54:37;;;;;;;296.08;270.13;;;;;;;18.38;27.79;94232.63;5166080;27;20097;-69
2022/03/28 10:57:04;;;;;;;312.92;285.58;;;;;;;18.33;27.55;94230.50;5159940;27;20474;-69
2022/03/28 10:59:30;;;;;;;306.60;280.27;;;;;;;18.33;27.66;94227.06;5152815;27;20138;-69
2022/03/28 11:01:56;;;;;;;301.50;275.75;;;;;;;18.27;27.68;94216.06;5166275;27;20580;-69
2022/03/28 11:04:23;;;;;;;314.20;287.75;;;;;;;18.26;27.85;94211.09;5163005;27;20046;-68